Time;durP1;ratioP1;P1;durP2;ratioP2;P2;SDS_P1;SDS_P2;PMS_P1;PMS_P2;Temp;Humidity;BMP_temperature;BMP_pressure;BME280_temperature;BME280_humidity;BME280_pressure;Samples;Min_cycle;Max_cycle;Signal;HPM_P1;HPM_P2
2023/03/19 00:00:03;;;;;;;78.82;36.75;;;0.50;90.40;;;;;;4974180;28;20389;-78
2023/03/19 00:02:31;;;;;;;70.72;32.80;;;0.40;91.50;;;;;;4975387;28;20077;-78
2023/03/19 00:04:56;;;;;;;73.15;33.75;;;0.40;90.30;;;;;;4974235;28;20038;-76
2023/03/19 00:07:22;;;;;;;73.47;32.90;;;0.30;90.00;;;;;;4975302;28;20477;-76
2023/03/19 00:09:48;;;;;;;70.07;32.00;;;0.30;89.10;;;;;;4974166;28;20473;-78
2023/03/19 00:12:14;;;;;;;71.88;34.08;;;0.30;89.20;;;;;;4975442;28;20078;-76
2023/03/19 00:14:39;;;;;;;70.00;34.45;;;0.30;89.30;;;;;;4973917;28;20492;-78
2023/03/19 00:17:06;;;;;;;89.13;37.78;;;0.30;90.00;;;;;;4975082;28;20034;-78
2023/03/19 00:19:31;;;;;;;102.82;46.90;;;0.20;90.10;;;;;;4975033;28;20027;-78
2023/03/19 00:21:57;;;;;;;96.90;44.05;;;0.10;92.60;;;;;;4975140;28;20034;-77
2023/03/19 00:24:23;;;;;;;100.43;44.78;;;0.10;94.60;;;;;;4973825;28;20480;-78
2023/03/19 00:26:48;;;;;;;98.75;46.97;;;0.00;95.10;;;;;;4973736;28;20031;-78
2023/03/19 00:29:14;;;;;;;92.65;43.47;;;0.00;96.20;;;;;;4975285;28;20019;-76
2023/03/19 00:31:40;;;;;;;80.80;36.63;;;0.00;97.10;;;;;;4974891;28;20121;-78
2023/03/19 00:34:07;;;;;;;69.30;32.92;;;0.00;96.70;;;;;;4973571;28;20031;-76
2023/03/19 00:36:33;;;;;;;61.30;30.23;;;0.00;95.20;;;;;;4974827;28;20019;-77
2023/03/19 00:38:58;;;;;;;61.78;30.88;;;-0.10;94.40;;;;;;4971329;28;20019;-76
2023/03/19 00:41:24;;;;;;;55.17;31.17;;;-0.10;94.10;;;;;;4971894;28;20629;-78
2023/03/19 00:43:54;;;;;;;52.65;26.05;;;-0.10;94.00;;;;;;4973618;28;20023;-76
2023/03/19 00:46:20;;;;;;;54.10;25.88;;;-0.10;92.90;;;;;;4974404;28;20022;-76
2023/03/19 00:48:46;;;;;;;56.28;26.58;;;-0.20;92.60;;;;;;4972409;28;20105;-76
2023/03/19 00:51:12;;;;;;;58.40;30.38;;;-0.20;92.10;;;;;;4974754;28;20023;-77
2023/03/19 00:53:39;;;;;;;61.47;29.70;;;-0.20;91.00;;;;;;4973401;28;20393;-77
2023/03/19 00:56:06;;;;;;;61.58;29.95;;;-0.30;90.60;;;;;;4973272;28;20560;-76
2023/03/19 00:58:32;;;;;;;57.42;28.45;;;-0.30;91.00;;;;;;4974623;28;20187;-76
2023/03/19 01:00:58;;;;;;;60.80;29.80;;;-0.20;90.60;;;;;;4973234;28;20457;-78
2023/03/19 01:03:24;;;;;;;61.03;31.58;;;-0.20;91.10;;;;;;4973359;28;20115;-77
2023/03/19 01:05:50;;;;;;;78.18;36.30;;;-0.30;91.70;;;;;;4973218;28;20031;-76
2023/03/19 01:08:16;;;;;;;79.82;39.00;;;-0.30;93.30;;;;;;4973303;28;20051;-77
2023/03/19 01:10:43;;;;;;;82.15;36.88;;;-0.40;95.60;;;;;;4974382;28;20027;-78
2023/03/19 01:13:09;;;;;;;68.45;31.30;;;-0.40;97.40;;;;;;4973153;28;20501;-78
2023/03/19 01:15:39;;;;;;;72.55;33.80;;;-0.40;97.50;;;;;;4973049;28;20035;-78
2023/03/19 01:18:06;;;;;;;70.35;32.92;;;-0.50;97.20;;;;;;4973115;28;20033;-77
2023/03/19 01:20:33;;;;;;;73.13;34.13;;;-0.50;97.50;;;;;;4973119;28;20023;-78
2023/03/19 01:22:58;;;;;;;67.57;30.75;;;-0.50;97.40;;;;;;4973007;28;20026;-76
2023/03/19 01:25:24;;;;;;;71.07;32.63;;;-0.50;97.80;;;;;;4974226;28;20033;-76
2023/03/19 01:27:51;;;;;;;63.45;33.05;;;-0.60;97.40;;;;;;4974258;28;20030;-78
2023/03/19 01:30:16;;;;;;;65.20;30.33;;;-0.60;97.40;;;;;;4973515;28;20376;-77
2023/03/19 01:32:42;;;;;;;62.72;28.88;;;-0.60;96.80;;;;;;4972998;28;20014;-78
2023/03/19 01:35:08;;;;;;;50.13;28.08;;;-0.60;95.70;;;;;;4973140;28;20560;-78
2023/03/19 01:37:34;;;;;;;55.30;27.25;;;-0.60;94.50;;;;;;4972897;28;20030;-76
2023/03/19 01:40:00;;;;;;;52.28;25.85;;;-0.60;94.90;;;;;;4973811;28;20462;-76
2023/03/19 01:42:25;;;;;;;48.08;24.73;;;-0.60;92.50;;;;;;4974157;28;20026;-76
2023/03/19 01:44:51;;;;;;;49.22;24.60;;;-0.60;91.90;;;;;;4972924;28;20409;-76
2023/03/19 01:47:26;;;;;;;45.75;23.33;;;-0.60;91.80;;;;;;4973744;28;20030;-78
2023/03/19 01:49:54;;;;;;;52.20;23.90;;;-0.70;91.20;;;;;;4975143;28;20027;-76
2023/03/19 01:52:22;;;;;;;51.67;22.63;;;-0.70;91.30;;;;;;4977920;28;20030;-78
2023/03/19 01:54:49;;;;;;;44.40;23.10;;;-0.70;91.40;;;;;;4976525;28;20496;-78
2023/03/19 01:57:16;;;;;;;47.85;24.17;;;-0.70;92.10;;;;;;4976569;28;20026;-76
2023/03/19 01:59:48;;;;;;;52.75;25.88;;;-0.80;92.00;;;;;;4976557;28;20081;-78
2023/03/19 02:02:21;;;;;;;46.50;22.98;;;-0.80;91.80;;;;;;4975849;28;20034;-77
2023/03/19 02:04:51;;;;;;;51.53;24.30;;;-0.80;92.10;;;;;;4977624;28;20027;-76
2023/03/19 02:07:17;;;;;;;46.70;22.00;;;-0.80;92.40;;;;;;4976328;28;20019;-76
2023/03/19 02:09:43;;;;;;;40.63;21.42;;;-0.80;91.80;;;;;;4977590;28;20027;-77
2023/03/19 02:12:09;;;;;;;40.50;22.27;;;-0.90;91.10;;;;;;4976280;28;20035;-76
2023/03/19 02:14:35;;;;;;;43.40;21.67;;;-0.90;91.10;;;;;;4977501;28;20027;-76
2023/03/19 02:17:01;;;;;;;43.20;20.52;;;-0.90;91.00;;;;;;4977558;28;20067;-78
2023/03/19 02:19:39;;;;;;;43.80;20.98;;;-0.90;91.10;;;;;;4979625;28;20046;-78
2023/03/19 02:22:05;;;;;;;41.25;18.95;;;-0.90;90.60;;;;;;4995472;28;20107;-76
2023/03/19 02:25:00;;;;;;;40.50;19.90;;;-0.90;89.70;;;;;;4995470;28;20043;-77
2023/03/19 02:27:26;;;;;;;35.90;16.73;;;-0.90;88.70;;;;;;4991487;28;20097;-77
2023/03/19 02:29:51;;;;;;;27.42;16.73;;;-1.00;87.20;;;;;;4982202;28;20496;-75
2023/03/19 02:32:17;;;;;;;30.45;17.10;;;-1.00;86.80;;;;;;4977050;28;20127;-78
2023/03/19 02:34:43;;;;;;;35.05;19.88;;;-1.00;86.50;;;;;;4976996;28;20034;-77
2023/03/19 02:37:18;;;;;;;37.70;20.35;;;-1.00;86.60;;;;;;4975456;28;20025;-76
2023/03/19 02:40:11;;;;;;;50.58;24.52;;;-1.00;88.10;;;;;;4976204;28;20417;-78
2023/03/19 02:42:37;;;;;;;;;;;-1.10;89.90;;;;;;4976158;28;20034;-76
2023/03/19 02:45:03;;;;;;;62.55;31.38;;;-1.10;92.10;;;;;;4977187;28;20319;-77
2023/03/19 02:47:28;;;;;;;72.22;33.38;;;-1.10;94.30;;;;;;4975564;28;20042;-77
2023/03/19 02:49:54;;;;;;;78.22;38.70;;;-1.20;97.00;;;;;;4977023;28;20078;-76
2023/03/19 02:52:20;;;;;;;62.00;33.28;;;-1.20;99.30;;;;;;4976788;28;20026;-77
2023/03/19 02:54:47;;;;;;;61.38;29.67;;;-1.20;99.90;;;;;;4976778;28;20096;-76
2023/03/19 02:57:12;;;;;;;51.17;25.50;;;-1.20;99.90;;;;;;4986232;28;20026;-77
2023/03/19 02:59:38;;;;;;;47.28;21.55;;;-1.30;99.40;;;;;;4994940;28;20392;-76
2023/03/19 03:02:05;;;;;;;45.63;22.70;;;-1.30;97.30;;;;;;4995213;28;20465;-77
2023/03/19 03:04:32;;;;;;;37.92;20.83;;;-1.30;96.60;;;;;;4996033;28;20026;-76
2023/03/19 03:06:57;;;;;;;39.03;20.10;;;-1.30;95.50;;;;;;4994724;28;20394;-78
2023/03/19 03:09:23;;;;;;;41.42;20.40;;;-1.30;94.50;;;;;;4994671;28;20060;-78
2023/03/19 03:11:49;;;;;;;39.65;22.40;;;-1.40;94.30;;;;;;4994588;28;20392;-76
2023/03/19 03:14:15;;;;;;;42.35;21.05;;;-1.40;94.70;;;;;;4995835;28;20014;-76
2023/03/19 03:16:41;;;;;;;47.25;22.80;;;-1.40;95.40;;;;;;4995740;28;20614;-76
2023/03/19 03:19:06;;;;;;;40.88;23.40;;;-1.40;96.40;;;;;;4995892;28;20026;-76
2023/03/19 03:21:33;;;;;;;53.28;26.20;;;-1.40;96.80;;;;;;4979334;28;20058;-77
2023/03/19 03:23:59;;;;;;;53.05;25.15;;;-1.40;97.30;;;;;;4976275;28;20034;-76
2023/03/19 03:26:24;;;;;;;45.70;21.63;;;-1.50;97.00;;;;;;4974640;28;20023;-77
2023/03/19 03:28:51;;;;;;;50.42;24.67;;;-1.50;96.40;;;;;;4976191;28;20031;-77
2023/03/19 03:31:17;;;;;;;40.92;20.75;;;-1.50;95.60;;;;;;4974887;28;20033;-76
2023/03/19 03:33:42;;;;;;;43.22;22.15;;;-1.50;93.90;;;;;;4976059;28;20023;-76
2023/03/19 03:36:08;;;;;;;39.92;20.05;;;-1.50;93.60;;;;;;4975936;28;20393;-76
2023/03/19 03:38:34;;;;;;;46.90;23.65;;;-1.50;93.50;;;;;;4974734;28;20560;-78
2023/03/19 03:40:59;;;;;;;52.13;25.50;;;-1.50;92.40;;;;;;4974593;28;20476;-78
2023/03/19 03:43:25;;;;;;;39.22;20.63;;;-1.50;92.20;;;;;;4976020;28;20080;-77
2023/03/19 03:45:52;;;;;;;49.78;22.17;;;-1.60;92.80;;;;;;4981037;28;20038;-76
2023/03/19 03:48:17;;;;;;;36.25;20.25;;;-1.60;95.30;;;;;;4974506;28;20058;-76
2023/03/19 03:50:43;;;;;;;39.33;18.40;;;-1.60;96.00;;;;;;4975723;28;20027;-77
2023/03/19 03:53:11;;;;;;;39.88;19.65;;;-1.60;96.50;;;;;;4975698;28;20421;-78
2023/03/19 03:55:37;;;;;;;50.78;22.55;;;-1.60;95.00;;;;;;4974289;28;20113;-75
2023/03/19 03:58:03;;;;;;;52.47;24.50;;;-1.60;95.20;;;;;;4975612;28;20023;-76
2023/03/19 04:00:28;;;;;;;45.28;23.38;;;-1.60;96.80;;;;;;4975682;28;20113;-76
2023/03/19 04:02:54;;;;;;;57.50;22.63;;;-1.60;97.60;;;;;;4975584;28;20058;-78
2023/03/19 04:05:20;;;;;;;56.17;21.35;;;-1.60;97.90;;;;;;4975580;28;20022;-76
2023/03/19 04:07:46;;;;;;;51.88;23.25;;;-1.60;98.70;;;;;;4975502;28;20037;-77
2023/03/19 04:10:13;;;;;;;49.17;23.77;;;-1.70;98.50;;;;;;4975579;28;20106;-76
2023/03/19 04:12:40;;;;;;;49.95;24.08;;;-1.60;99.00;;;;;;4975418;28;20081;-76
2023/03/19 04:15:08;;;;;;;45.60;20.75;;;-1.70;99.20;;;;;;4990459;28;20407;-75
2023/03/19 04:17:34;;;;;;;33.25;16.65;;;-1.70;99.50;;;;;;4993369;28;20018;-76
2023/03/19 04:20:01;;;;;;;33.78;16.50;;;-1.70;98.60;;;;;;4993426;28;20479;-76
2023/03/19 04:22:27;;;;;;;33.05;19.63;;;-1.70;98.70;;;;;;4993339;28;20056;-76
2023/03/19 04:24:53;;;;;;;38.83;19.13;;;-1.70;98.40;;;;;;4994587;28;20026;-78
2023/03/19 04:27:19;;;;;;;47.90;20.90;;;-1.70;98.50;;;;;;4993232;28;20106;-77
2023/03/19 04:29:45;;;;;;;41.40;19.60;;;-1.70;99.20;;;;;;4994441;28;20505;-75
2023/03/19 04:32:10;;;;;;;36.88;18.13;;;-1.80;99.90;;;;;;4994428;28;20031;-75
2023/03/19 04:34:36;;;;;;;36.22;17.27;;;-1.80;99.90;;;;;;4994223;28;20101;-78
2023/03/19 04:37:02;;;;;;;39.22;16.70;;;-1.80;99.50;;;;;;4992973;28;20084;-78
2023/03/19 04:39:28;;;;;;;36.67;18.52;;;-1.80;98.10;;;;;;4994399;28;20057;-76
2023/03/19 04:41:53;;;;;;;36.47;17.05;;;-1.80;97.20;;;;;;4994251;28;20034;-77
2023/03/19 04:44:19;;;;;;;37.53;17.33;;;-1.80;97.00;;;;;;4994221;28;20026;-75
2023/03/19 04:46:45;;;;;;;46.20;19.38;;;-1.80;96.80;;;;;;4992879;28;20534;-75
2023/03/19 04:49:11;;;;;;;38.40;19.08;;;-1.80;96.90;;;;;;4993030;28;20133;-77
2023/03/19 04:51:37;;;;;;;36.60;18.17;;;-1.80;97.10;;;;;;4992836;28;20046;-78
2023/03/19 04:54:04;;;;;;;44.92;20.08;;;-1.80;97.10;;;;;;4994118;28;20050;-78
2023/03/19 04:56:30;;;;;;;33.55;17.25;;;-1.80;97.70;;;;;;4992681;28;20429;-75
2023/03/19 04:58:56;;;;;;;31.88;16.80;;;-1.80;97.60;;;;;;4994034;28;20053;-78
2023/03/19 05:01:22;;;;;;;28.63;15.23;;;-1.80;97.30;;;;;;4991386;28;20026;-78
2023/03/19 05:03:47;;;;;;;31.98;16.70;;;-1.80;97.10;;;;;;4973282;28;20074;-77
2023/03/19 05:06:13;;;;;;;35.22;16.33;;;-1.80;97.30;;;;;;4973278;28;20518;-75
2023/03/19 05:08:39;;;;;;;32.67;16.23;;;-1.80;96.30;;;;;;4974545;28;20023;-78
2023/03/19 05:11:04;;;;;;;32.80;15.73;;;-1.80;96.30;;;;;;4974556;28;20027;-76
2023/03/19 05:13:30;;;;;;;31.15;17.60;;;-1.80;96.70;;;;;;4973149;28;20105;-76
2023/03/19 05:15:56;;;;;;;37.63;18.55;;;-1.80;97.60;;;;;;4973055;28;20038;-78
2023/03/19 05:18:22;;;;;;;34.05;17.63;;;-1.80;97.60;;;;;;4974470;28;20497;-77
2023/03/19 05:20:48;;;;;;;37.25;16.80;;;-1.80;98.10;;;;;;4974275;28;20041;-77
2023/03/19 05:23:14;;;;;;;29.80;16.08;;;-1.70;98.70;;;;;;4973129;28;20109;-78
2023/03/19 05:25:39;;;;;;;42.13;19.80;;;-1.60;98.50;;;;;;4975152;28;20018;-76
2023/03/19 05:28:07;;;;;;;39.55;20.05;;;-1.60;98.30;;;;;;4977283;28;20046;-76
2023/03/19 05:30:33;;;;;;;41.58;20.75;;;-1.60;99.30;;;;;;4978287;28;20029;-78
2023/03/19 05:32:59;;;;;;;47.13;21.15;;;-1.60;99.90;;;;;;4976973;28;20027;-77
2023/03/19 05:35:26;;;;;;;37.67;19.60;;;-1.60;99.90;;;;;;4976974;28;20034;-76
2023/03/19 05:37:52;;;;;;;42.38;20.20;;;-1.50;99.90;;;;;;4976813;28;20039;-76
2023/03/19 05:40:18;;;;;;;36.88;19.65;;;-1.40;99.90;;;;;;4978338;28;20110;-78
2023/03/19 05:42:44;;;;;;;39.65;19.52;;;-1.40;99.90;;;;;;4976775;28;20062;-76
2023/03/19 05:45:10;;;;;;;40.10;20.40;;;-1.30;99.90;;;;;;4976887;28;20015;-76
2023/03/19 05:47:36;;;;;;;34.75;19.80;;;-1.20;99.90;;;;;;4976432;28;20051;-78
2023/03/19 05:50:02;;;;;;;36.85;18.73;;;-1.00;99.90;;;;;;4976649;28;20053;-77
2023/03/19 05:52:28;;;;;;;35.67;16.85;;;-1.00;99.90;;;;;;4977884;28;20027;-78
2023/03/19 05:54:53;;;;;;;28.30;15.65;;;-0.90;99.90;;;;;;4976573;28;20452;-76
2023/03/19 05:57:19;;;;;;;34.38;17.90;;;-0.70;99.90;;;;;;4977843;28;20023;-76
2023/03/19 05:59:45;;;;;;;36.83;20.33;;;-0.60;99.90;;;;;;4977564;28;20361;-77
2023/03/19 06:02:10;;;;;;;35.33;17.77;;;-0.50;99.90;;;;;;4977575;28;20053;-76
2023/03/19 06:04:36;;;;;;;37.85;20.10;;;-0.30;99.60;;;;;;4977617;28;20027;-78
2023/03/19 06:07:01;;;;;;;40.88;20.63;;;-0.20;99.30;;;;;;4983600;28;20121;-78
2023/03/19 06:09:27;;;;;;;41.13;21.30;;;0.00;99.60;;;;;;4995675;28;20026;-76
2023/03/19 06:11:53;;;;;;;40.72;21.05;;;0.20;99.90;;;;;;4992007;28;20030;-76
2023/03/19 06:14:18;;;;;;;41.42;20.85;;;0.30;99.90;;;;;;4976786;28;20026;-77
2023/03/19 06:16:44;;;;;;;43.28;19.13;;;0.50;99.90;;;;;;4977401;28;20054;-78
2023/03/19 06:19:10;;;;;;;38.67;19.45;;;0.70;99.00;;;;;;4982470;28;20100;-77
2023/03/19 06:21:35;;;;;;;33.00;17.85;;;0.90;97.90;;;;;;4995447;28;20018;-76
2023/03/19 06:24:01;;;;;;;33.03;18.42;;;1.20;96.60;;;;;;4995449;28;20030;-78
2023/03/19 06:26:26;;;;;;;37.92;19.67;;;1.40;95.50;;;;;;4986086;28;20075;-76
2023/03/19 06:28:53;;;;;;;31.25;17.05;;;1.60;93.30;;;;;;4981297;28;20106;-76
2023/03/19 06:31:18;;;;;;;36.17;19.25;;;1.80;92.50;;;;;;4977784;28;20030;-76
2023/03/19 06:33:44;;;;;;;40.88;21.05;;;2.10;91.30;;;;;;4975863;28;20023;-78
2023/03/19 06:36:10;;;;;;;39.28;21.40;;;2.30;90.80;;;;;;4975894;28;20043;-76
2023/03/19 06:38:35;;;;;;;48.92;25.00;;;2.60;90.30;;;;;;4976866;28;20036;-77
2023/03/19 06:41:01;;;;;;;50.17;28.23;;;2.80;91.40;;;;;;4993267;28;20057;-77
2023/03/19 06:43:27;;;;;;;50.20;26.10;;;3.00;92.70;;;;;;4996473;28;20061;-77
2023/03/19 06:45:53;;;;;;;45.58;24.60;;;3.30;93.00;;;;;;4995070;28;20484;-78
2023/03/19 06:48:18;;;;;;;51.80;24.95;;;3.60;92.70;;;;;;4994916;28;20058;-77
2023/03/19 06:50:45;;;;;;;50.30;23.60;;;3.80;90.40;;;;;;4977572;28;20073;-77
2023/03/19 06:53:12;;;;;;;35.70;19.35;;;4.10;89.60;;;;;;4975439;28;20061;-77
2023/03/19 06:55:38;;;;;;;30.50;16.38;;;4.40;84.30;;;;;;4976372;28;20043;-77
2023/03/19 06:58:05;;;;;;;24.73;13.30;;;4.70;79.80;;;;;;4976592;28;20031;-77
2023/03/19 07:00:31;;;;;;;12.82;8.45;;;5.10;74.90;;;;;;4985993;28;20620;-77
2023/03/19 07:02:57;;;;;;;17.10;9.20;;;5.50;68.60;;;;;;4974958;28;20023;-77
2023/03/19 07:05:22;;;;;;;18.42;11.23;;;5.80;64.50;;;;;;4975087;28;20054;-77
2023/03/19 07:07:48;;;;;;;18.67;11.13;;;6.10;64.80;;;;;;4976257;28;20055;-77
2023/03/19 07:10:16;;;;;;;14.88;8.85;;;6.40;64.70;;;;;;4982933;28;20457;-77
2023/03/19 07:12:42;;;;;;;14.82;8.57;;;6.70;62.90;;;;;;4976135;28;20023;-77
2023/03/19 07:15:07;;;;;;;13.18;7.05;;;7.00;61.20;;;;;;4974857;28;20042;-77
2023/03/19 07:17:33;;;;;;;15.70;9.02;;;7.20;59.40;;;;;;4976036;28;20110;-76
2023/03/19 07:19:59;;;;;;;14.18;8.80;;;7.40;59.20;;;;;;4985587;28;20037;-76
2023/03/19 07:22:24;;;;;;;14.32;7.88;;;7.50;59.30;;;;;;4974796;28;20095;-77
2023/03/19 07:24:50;;;;;;;12.43;7.45;;;7.70;58.50;;;;;;4975994;28;20050;-77
2023/03/19 07:27:16;;;;;;;12.30;7.30;;;8.00;58.40;;;;;;4984614;28;20018;-77
2023/03/19 07:29:41;;;;;;;13.23;8.00;;;8.20;57.80;;;;;;4994143;28;20022;-77
2023/03/19 07:32:09;;;;;;;12.13;7.63;;;8.40;57.20;;;;;;4994456;28;20076;-77
2023/03/19 07:34:36;;;;;;;11.50;6.32;;;8.60;56.70;;;;;;4995336;28;20021;-77
2023/03/19 07:37:01;;;;;;;11.40;6.93;;;8.80;56.60;;;;;;4994275;28;20030;-78
2023/03/19 07:39:27;;;;;;;10.70;7.82;;;9.00;55.80;;;;;;4977190;28;20472;-77
2023/03/19 07:41:53;;;;;;;9.25;5.88;;;9.20;55.40;;;;;;4975586;28;20045;-77
2023/03/19 07:44:18;;;;;;;8.90;6.93;;;9.40;55.00;;;;;;4974482;28;20561;-77
2023/03/19 07:46:44;;;;;;;9.90;6.60;;;9.60;54.90;;;;;;4989979;28;20034;-77
2023/03/19 07:49:10;;;;;;;9.68;6.75;;;9.60;54.10;;;;;;4994487;28;20373;-77
2023/03/19 07:51:35;;;;;;;9.70;7.28;;;9.80;54.00;;;;;;4993550;28;20141;-77
2023/03/19 07:54:02;;;;;;;13.73;7.05;;;9.80;53.60;;;;;;4981816;28;20027;-77
2023/03/19 07:56:27;;;;;;;6.65;5.28;;;10.00;54.80;;;;;;4975269;28;20106;-77
2023/03/19 07:58:53;;;;;;;9.95;6.30;;;10.20;53.70;;;;;;4974093;28;20162;-77
2023/03/19 08:01:22;;;;;;;11.38;6.50;;;10.30;53.40;;;;;;4973489;28;20476;-77
2023/03/19 08:03:47;;;;;;;10.93;7.25;;;10.40;53.00;;;;;;4982802;28;20049;-78
2023/03/19 08:06:13;;;;;;;13.77;5.95;;;10.40;52.90;;;;;;4992333;28;20038;-78
2023/03/19 08:08:39;;;;;;;8.95;6.30;;;10.40;52.50;;;;;;4993139;28;20480;-80
2023/03/19 08:11:05;;;;;;;8.10;5.20;;;10.40;52.70;;;;;;4991819;28;20428;-78
2023/03/19 08:13:31;;;;;;;11.48;6.10;;;10.50;51.70;;;;;;4985764;28;20022;-77
2023/03/19 08:15:57;;;;;;;9.25;6.30;;;10.50;51.70;;;;;;4972967;28;20042;-77
2023/03/19 08:18:22;;;;;;;9.50;6.15;;;10.60;51.20;;;;;;4974123;28;20058;-80
2023/03/19 08:20:48;;;;;;;9.45;5.97;;;10.70;51.40;;;;;;4975183;28;20061;-80
2023/03/19 08:23:15;;;;;;;7.65;5.70;;;10.80;51.00;;;;;;4974080;28;20022;-79
2023/03/19 08:25:41;;;;;;;11.88;6.55;;;10.90;51.50;;;;;;4973493;28;20034;-77
2023/03/19 08:28:08;;;;;;;12.07;7.35;;;11.00;51.20;;;;;;4972685;28;20030;-80
2023/03/19 08:30:35;;;;;;;12.32;6.70;;;11.10;50.80;;;;;;4972855;28;20030;-80
2023/03/19 08:33:00;;;;;;;11.18;6.63;;;11.20;50.70;;;;;;4973933;28;20397;-80
2023/03/19 08:35:26;;;;;;;13.93;6.85;;;11.20;50.40;;;;;;4972707;28;20030;-80
2023/03/19 08:37:53;;;;;;;11.30;6.47;;;11.30;49.80;;;;;;4973534;28;20042;-77
2023/03/19 08:40:19;;;;;;;15.75;7.60;;;11.30;49.40;;;;;;4971981;28;20483;-77
2023/03/19 08:42:44;;;;;;;12.07;7.32;;;11.50;49.90;;;;;;4973710;28;20039;-77
2023/03/19 08:45:12;;;;;;;12.68;6.57;;;11.60;49.10;;;;;;4987476;28;20110;-77
2023/03/19 08:47:37;;;;;;;12.15;7.18;;;11.70;49.40;;;;;;4973288;28;20038;-77
2023/03/19 08:50:04;;;;;;;10.68;6.38;;;11.90;49.50;;;;;;4972561;28;20061;-77
2023/03/19 08:52:30;;;;;;;10.07;6.72;;;12.10;48.80;;;;;;4972295;28;20110;-80
2023/03/19 08:54:56;;;;;;;9.05;5.60;;;12.20;48.30;;;;;;4973208;28;20134;-80
2023/03/19 08:57:21;;;;;;;9.10;5.82;;;12.10;47.90;;;;;;4973267;28;20110;-80
2023/03/19 08:59:47;;;;;;;7.15;4.72;;;12.10;47.90;;;;;;4982771;28;20062;-80
2023/03/19 09:02:13;;;;;;;6.60;4.78;;;12.20;47.30;;;;;;4973258;28;20510;-81
2023/03/19 09:04:42;;;;;;;5.88;4.40;;;12.30;46.80;;;;;;4972479;28;20022;-81
2023/03/19 09:07:11;;;;;;;7.50;4.60;;;12.50;46.40;;;;;;4974929;28;20518;-77
2023/03/19 09:09:38;;;;;;;7.65;4.63;;;12.50;46.30;;;;;;4991405;28;20026;-77
2023/03/19 09:12:04;;;;;;;7.57;5.15;;;12.60;46.40;;;;;;4991507;28;20030;-78
2023/03/19 09:14:30;;;;;;;6.60;5.10;;;12.70;46.70;;;;;;4993005;28;20022;-77
2023/03/19 09:16:56;;;;;;;9.30;5.90;;;12.80;45.40;;;;;;4992779;28;20104;-77
2023/03/19 09:19:22;;;;;;;7.85;5.57;;;12.80;46.50;;;;;;4991539;28;20029;-77
2023/03/19 09:21:49;;;;;;;10.85;6.35;;;12.90;46.20;;;;;;4987191;28;20086;-81
2023/03/19 09:24:15;;;;;;;7.15;5.43;;;13.00;46.00;;;;;;4971490;28;20018;-81
2023/03/19 09:26:40;;;;;;;5.30;4.72;;;13.10;45.00;;;;;;4973083;28;20405;-77
2023/03/19 09:29:06;;;;;;;5.28;4.05;;;13.10;43.70;;;;;;4974498;28;20023;-80
2023/03/19 09:31:32;;;;;;;7.43;5.28;;;13.00;44.20;;;;;;4971740;28;20038;-80
2023/03/19 09:33:58;;;;;;;8.35;5.38;;;13.10;44.60;;;;;;4973365;28;20385;-78
2023/03/19 09:36:24;;;;;;;6.00;4.47;;;13.10;44.20;;;;;;4973009;28;20071;-79
2023/03/19 09:38:50;;;;;;;5.82;4.00;;;13.20;43.70;;;;;;4972859;28;20027;-77
2023/03/19 09:41:36;;;;;;;6.05;4.28;;;13.20;43.10;;;;;;4974564;28;20023;-77
2023/03/19 09:44:11;;;;;;;6.35;4.00;;;13.30;42.90;;;;;;4992393;28;20027;-77
2023/03/19 09:47:02;;;;;;;6.60;4.35;;;13.30;43.00;;;;;;4987614;28;20465;-80
2023/03/19 09:49:31;;;;;;;5.88;4.32;;;13.40;43.70;;;;;;4989631;28;20081;-77
2023/03/19 09:52:06;;;;;;;5.57;4.18;;;13.30;43.80;;;;;;4991831;28;20042;-77
2023/03/19 09:54:48;;;;;;;5.22;3.65;;;13.20;43.00;;;;;;4992333;28;20025;-77
2023/03/19 09:57:14;;;;;;;8.07;4.03;;;13.10;42.90;;;;;;4991307;28;20038;-77
2023/03/19 09:59:40;;;;;;;6.78;3.90;;;13.00;42.20;;;;;;4992817;28;20031;-77
2023/03/19 10:02:20;;;;;;;4.65;3.88;;;13.00;42.10;;;;;;4976177;28;20029;-79
2023/03/19 10:04:58;;;;;;;6.43;4.05;;;13.20;42.20;;;;;;4993262;28;20481;-79
2023/03/19 10:07:46;;;;;;;6.60;3.97;;;13.30;42.70;;;;;;4993429;28;20046;-77
2023/03/19 10:10:21;;;;;;;5.65;4.88;;;13.50;42.50;;;;;;4993248;28;20448;-79
2023/03/19 10:13:01;;;;;;;6.68;4.43;;;13.50;41.10;;;;;;4991211;28;20503;-79
2023/03/19 10:15:29;;;;;;;6.65;4.28;;;13.50;41.10;;;;;;4975999;28;20400;-80
2023/03/19 10:18:06;;;;;;;6.55;4.63;;;13.70;42.30;;;;;;4975855;28;20053;-80
2023/03/19 10:20:45;;;;;;;4.65;3.90;;;13.80;42.20;;;;;;4977254;28;20038;-80
2023/03/19 10:23:33;;;;;;;7.05;4.50;;;14.00;42.50;;;;;;4977152;28;20031;-80
2023/03/19 10:26:02;;;;;;;5.47;4.80;;;13.90;40.80;;;;;;4975787;28;20019;-77
2023/03/19 10:28:28;;;;;;;5.70;4.03;;;13.70;39.80;;;;;;4977092;28;20050;-77
2023/03/19 10:31:12;;;;;;;6.68;4.88;;;13.80;41.20;;;;;;4976969;28;20042;-77
2023/03/19 10:33:44;;;;;;;4.85;3.95;;;13.80;41.80;;;;;;4977054;28;20026;-79
2023/03/19 10:36:11;;;;;;;7.50;4.82;;;13.70;41.30;;;;;;4975627;28;20047;-80
2023/03/19 10:38:42;;;;;;;6.60;4.70;;;13.50;40.40;;;;;;4986225;28;20031;-78
2023/03/19 10:41:34;;;;;;;6.72;5.10;;;13.40;40.90;;;;;;4975486;28;20027;-80
2023/03/19 10:44:34;;;;;;;5.03;4.28;;;13.50;42.00;;;;;;4975416;28;20045;-80
2023/03/19 10:47:11;;;;;;;6.32;4.72;;;13.50;42.30;;;;;;4989544;28;20436;-80
2023/03/19 10:49:38;;;;;;;5.50;4.72;;;13.70;42.00;;;;;;4976756;28;20485;-80
2023/03/19 10:52:04;;;;;;;5.20;4.47;;;13.90;41.90;;;;;;4976680;28;20042;-78
2023/03/19 10:54:30;;;;;;;7.70;5.60;;;13.90;40.90;;;;;;4976621;28;20089;-78
2023/03/19 10:56:58;;;;;;;8.20;5.60;;;13.90;41.00;;;;;;4975321;28;20031;-79
2023/03/19 10:59:30;;;;;;;7.03;4.38;;;14.00;41.00;;;;;;4975346;28;20023;-81
2023/03/19 11:01:57;;;;;;;7.60;4.90;;;14.00;40.90;;;;;;4979514;28;20034;-80
2023/03/19 11:04:28;;;;;;;9.00;4.47;;;14.10;41.60;;;;;;4975553;28;20117;-78
2023/03/19 11:07:12;;;;;;;7.32;4.50;;;14.30;41.10;;;;;;4976149;28;20018;-78
2023/03/19 11:09:41;;;;;;;9.00;4.93;;;14.50;40.90;;;;;;4975418;28;20489;-80
2023/03/19 11:12:21;;;;;;;7.60;4.25;;;14.60;40.80;;;;;;4975075;28;20030;-80
2023/03/19 11:14:52;;;;;;;5.47;4.43;;;14.70;41.40;;;;;;4974805;28;20070;-78
2023/03/19 11:17:25;;;;;;;8.55;4.45;;;14.80;40.80;;;;;;4976467;28;20437;-81
2023/03/19 11:19:54;;;;;;;6.38;4.38;;;15.00;40.20;;;;;;4977513;28;20485;-81
2023/03/19 11:22:31;;;;;;;7.13;4.40;;;14.90;39.00;;;;;;4974361;28;20493;-78
2023/03/19 11:25:01;;;;;;;6.00;4.22;;;14.80;38.80;;;;;;4976086;28;20541;-78
2023/03/19 11:27:36;;;;;;;6.40;4.45;;;14.70;38.40;;;;;;4975623;28;20019;-78
2023/03/19 11:30:11;;;;;;;7.57;4.90;;;14.80;39.50;;;;;;4974672;28;20034;-79
2023/03/19 11:33:02;;;;;;;4.80;3.95;;;14.80;38.20;;;;;;4975840;28;20468;-78
2023/03/19 11:35:37;;;;;;;6.57;4.40;;;14.70;39.10;;;;;;4974159;28;20038;-78
2023/03/19 11:38:08;;;;;;;8.15;4.38;;;14.90;40.20;;;;;;4980510;28;20555;-78
2023/03/19 11:41:02;;;;;;;7.10;4.50;;;14.90;40.00;;;;;;4974190;28;20038;-79
2023/03/19 11:43:31;;;;;;;6.00;4.25;;;15.10;39.00;;;;;;4972570;28;20110;-81
2023/03/19 11:45:59;;;;;;;6.45;4.38;;;15.00;38.20;;;;;;4972972;28;20505;-81
2023/03/19 11:48:59;;;;;;;6.95;4.53;;;15.00;37.50;;;;;;4980829;28;20054;-79
2023/03/19 11:51:37;;;;;;;5.32;4.15;;;14.90;37.60;;;;;;4972544;28;20026;-79
2023/03/19 11:54:12;;;;;;;8.32;4.15;;;14.80;38.30;;;;;;4973568;28;20456;-79
2023/03/19 11:56:42;;;;;;;6.45;5.05;;;14.80;38.20;;;;;;4972505;28;20404;-79
2023/03/19 11:59:26;;;;;;;5.00;4.05;;;14.90;38.90;;;;;;4974049;28;20065;-78
2023/03/19 12:02:17;;;;;;;4.70;4.30;;;14.90;39.00;;;;;;4974024;28;20035;-79
2023/03/19 12:05:13;;;;;;;5.95;4.57;;;14.90;37.90;;;;;;4973583;28;20085;-78
2023/03/19 12:08:12;;;;;;;7.35;4.82;;;14.90;38.00;;;;;;4975018;28;20039;-81
2023/03/19 12:11:12;;;;;;;5.55;4.18;;;14.90;38.00;;;;;;4973891;28;20118;-78
2023/03/19 12:13:56;;;;;;;4.82;3.58;;;14.80;37.50;;;;;;4973430;28;20535;-79
2023/03/19 12:16:43;;;;;;;7.50;4.63;;;14.70;36.70;;;;;;4975076;28;20042;-81
2023/03/19 12:19:18;;;;;;;8.30;5.63;;;14.80;39.50;;;;;;4973833;28;20489;-78
2023/03/19 12:22:16;;;;;;;66.80;29.13;;;14.90;39.30;;;;;;4974927;28;20050;-81
2023/03/19 12:25:08;;;;;;;82.85;34.38;;;14.90;38.00;;;;;;4973604;28;20034;-77
2023/03/19 12:27:48;;;;;;;12.43;6.78;;;15.00;38.60;;;;;;4973596;28;20043;-81
2023/03/19 12:30:23;;;;;;;5.80;4.15;;;15.00;38.40;;;;;;4974232;28;20081;-81
2023/03/19 12:32:52;;;;;;;6.32;4.95;;;15.00;38.10;;;;;;4973471;28;20019;-80
2023/03/19 12:35:25;;;;;;;6.72;4.15;;;15.00;38.40;;;;;;4974413;28;20109;-81
2023/03/19 12:37:59;;;;;;;6.88;4.35;;;14.90;37.90;;;;;;4973397;28;20019;-81
2023/03/19 12:40:50;;;;;;;5.28;4.05;;;14.80;37.10;;;;;;4974544;28;20031;-81
2023/03/19 12:43:25;;;;;;;4.57;4.13;;;14.80;37.60;;;;;;4974562;28;20015;-81